sensor_id;sensor_type;location;lat;lon;timestamp;pressure;altitude;pressure_sealevel;temperature;humidity
35878;BME280;21982;49.804;24.072;2023-06-19T00:00:27;97276.94;;;16.86;84.67
35878;BME280;21982;49.804;24.072;2023-06-19T00:02:52;97275.19;;;16.80;84.68
35878;BME280;21982;49.804;24.072;2023-06-19T00:05:18;97256.50;;;16.61;84.83
35878;BME280;21982;49.804;24.072;2023-06-19T00:07:43;97160.47;;;15.88;84.69
35878;BME280;21982;49.804;24.072;2023-06-19T00:10:09;97281.38;;;16.62;84.69
35878;BME280;21982;49.804;24.072;2023-06-19T00:12:34;97283.69;;;16.58;84.96
35878;BME280;21982;49.804;24.072;2023-06-19T00:14:59;97103.84;;;15.50;84.93
35878;BME280;21982;49.804;24.072;2023-06-19T00:17:25;97259.44;;;16.41;84.97
35878;BME280;21982;49.804;24.072;2023-06-19T00:19:53;97259.66;;;16.40;85.11
35878;BME280;21982;49.804;24.072;2023-06-19T00:22:19;97275.38;;;16.48;85.31
35878;BME280;21982;49.804;24.072;2023-06-19T00:24:45;97279.31;;;16.46;85.48
35878;BME280;21982;49.804;24.072;2023-06-19T00:27:11;97279.09;;;16.47;85.47
35878;BME280;21982;49.804;24.072;2023-06-19T00:29:36;97262.19;;;16.35;85.75
35878;BME280;21982;49.804;24.072;2023-06-19T00:32:02;97292.59;;;16.52;85.57
35878;BME280;21982;49.804;24.072;2023-06-19T00:34:30;97222.16;;;16.17;85.55
35878;BME280;21982;49.804;24.072;2023-06-19T00:36:56;97176.19;;;15.78;85.62
35878;BME280;21982;49.804;24.072;2023-06-19T00:39:23;97223.03;;;16.11;85.51
35878;BME280;21982;49.804;24.072;2023-06-19T00:41:51;97288.16;;;16.46;85.38
35878;BME280;21982;49.804;24.072;2023-06-19T00:44:17;97279.03;;;16.35;85.41
35878;BME280;21982;49.804;24.072;2023-06-19T00:46:42;97241.38;;;16.07;85.29
35878;BME280;21982;49.804;24.072;2023-06-19T00:49:08;97277.94;;;16.25;85.39
35878;BME280;21982;49.804;24.072;2023-06-19T00:51:33;97263.34;;;16.09;85.45
35878;BME280;21982;49.804;24.072;2023-06-19T00:53:59;97086.38;;;14.92;85.39
35878;BME280;21982;49.804;24.072;2023-06-19T00:56:25;97200.59;;;15.63;85.63
35878;BME280;21982;49.804;24.072;2023-06-19T00:58:52;97253.00;;;15.94;85.35
35878;BME280;21982;49.804;24.072;2023-06-19T01:01:19;97280.25;;;16.03;85.55
35878;BME280;21982;49.804;24.072;2023-06-19T01:03:46;97273.72;;;15.99;85.69
35878;BME280;21982;49.804;24.072;2023-06-19T01:06:23;97276.00;;;15.95;85.31
35878;BME280;21982;49.804;24.072;2023-06-19T01:11:21;97264.59;;;15.70;85.48
35878;BME280;21982;49.804;24.072;2023-06-19T01:13:53;97299.31;;;15.88;85.65
35878;BME280;21982;49.804;24.072;2023-06-19T01:16:23;97294.88;;;15.82;85.90
35878;BME280;21982;49.804;24.072;2023-06-19T01:18:49;97273.63;;;15.69;85.69
35878;BME280;21982;49.804;24.072;2023-06-19T01:21:17;97279.56;;;15.71;85.76
35878;BME280;21982;49.804;24.072;2023-06-19T01:23:43;97293.50;;;15.73;86.16
35878;BME280;21982;49.804;24.072;2023-06-19T01:26:09;97194.19;;;15.03;86.15
35878;BME280;21982;49.804;24.072;2023-06-19T01:28:36;97298.25;;;15.71;86.38
35878;BME280;21982;49.804;24.072;2023-06-19T01:31:04;97303.16;;;15.74;86.43
35878;BME280;21982;49.804;24.072;2023-06-19T01:33:32;97313.44;;;15.70;86.27
35878;BME280;21982;49.804;24.072;2023-06-19T01:35:58;97318.84;;;15.64;86.40
35878;BME280;21982;49.804;24.072;2023-06-19T01:38:28;97208.59;;;14.95;86.35
35878;BME280;21982;49.804;24.072;2023-06-19T01:40:55;97310.72;;;15.59;86.81
35878;BME280;21982;49.804;24.072;2023-06-19T01:43:24;97278.66;;;15.34;86.83
35878;BME280;21982;49.804;24.072;2023-06-19T01:45:50;97292.75;;;15.41;86.87
35878;BME280;21982;49.804;24.072;2023-06-19T01:48:15;97272.75;;;15.25;86.81
35878;BME280;21982;49.804;24.072;2023-06-19T01:50:48;97293.47;;;15.30;86.27
35878;BME280;21982;49.804;24.072;2023-06-19T01:55:48;97165.91;;;14.52;86.75
35878;BME280;21982;49.804;24.072;2023-06-19T01:58:14;97274.47;;;15.20;86.92
35878;BME280;21982;49.804;24.072;2023-06-19T02:00:39;97297.72;;;15.37;86.75
35878;BME280;21982;49.804;24.072;2023-06-19T02:03:08;97325.94;;;15.52;86.90
35878;BME280;21982;49.804;24.072;2023-06-19T02:05:34;97309.84;;;15.33;86.61
35878;BME280;21982;49.804;24.072;2023-06-19T02:08:04;97282.31;;;15.15;86.86
35878;BME280;21982;49.804;24.072;2023-06-19T02:10:29;97329.13;;;15.35;87.02
35878;BME280;21982;49.804;24.072;2023-06-19T02:12:55;97321.50;;;15.39;86.92
35878;BME280;21982;49.804;24.072;2023-06-19T02:15:20;97293.38;;;15.18;87.25
35878;BME280;21982;49.804;24.072;2023-06-19T02:17:45;97285.47;;;15.05;87.25
35878;BME280;21982;49.804;24.072;2023-06-19T02:20:11;97317.53;;;15.23;86.90
35878;BME280;21982;49.804;24.072;2023-06-19T02:22:40;97329.56;;;15.32;87.00
35878;BME280;21982;49.804;24.072;2023-06-19T02:25:06;97303.91;;;15.06;87.47
35878;BME280;21982;49.804;24.072;2023-06-19T02:27:32;97329.25;;;15.22;87.35
35878;BME280;21982;49.804;24.072;2023-06-19T02:29:57;97285.72;;;14.97;87.66
35878;BME280;21982;49.804;24.072;2023-06-19T02:32:23;97296.13;;;15.05;87.34
35878;BME280;21982;49.804;24.072;2023-06-19T02:34:48;97219.81;;;14.54;87.51
35878;BME280;21982;49.804;24.072;2023-06-19T02:37:15;97332.72;;;15.23;87.66
35878;BME280;21982;49.804;24.072;2023-06-19T02:39:40;97255.69;;;14.83;87.79
35878;BME280;21982;49.804;24.072;2023-06-19T02:42:06;97329.38;;;15.27;87.91
35878;BME280;21982;49.804;24.072;2023-06-19T02:44:31;97323.63;;;15.30;87.97
35878;BME280;21982;49.804;24.072;2023-06-19T02:46:57;97280.72;;;15.07;87.88
35878;BME280;21982;49.804;24.072;2023-06-19T02:49:22;97301.97;;;15.20;87.91
35878;BME280;21982;49.804;24.072;2023-06-19T02:51:48;97322.59;;;15.31;88.03
35878;BME280;21982;49.804;24.072;2023-06-19T02:54:13;97321.78;;;15.31;88.06
35878;BME280;21982;49.804;24.072;2023-06-19T02:56:38;97320.75;;;15.32;88.24
35878;BME280;21982;49.804;24.072;2023-06-19T02:59:04;97300.50;;;15.24;88.15
35878;BME280;21982;49.804;24.072;2023-06-19T03:01:29;97296.94;;;15.30;87.95
35878;BME280;21982;49.804;24.072;2023-06-19T03:03:55;97234.78;;;14.80;87.64
35878;BME280;21982;49.804;24.072;2023-06-19T03:06:20;97317.41;;;15.36;87.50
35878;BME280;21982;49.804;24.072;2023-06-19T03:08:46;97216.41;;;14.65;87.67
35878;BME280;21982;49.804;24.072;2023-06-19T03:11:11;97286.31;;;14.99;87.73
35878;BME280;21982;49.804;24.072;2023-06-19T03:13:57;97322.97;;;15.35;87.51
35878;BME280;21982;49.804;24.072;2023-06-19T03:16:22;97209.13;;;14.54;88.00
35878;BME280;21982;49.804;24.072;2023-06-19T03:18:48;97328.97;;;15.30;87.85
35878;BME280;21982;49.804;24.072;2023-06-19T03:21:16;97266.72;;;14.87;87.70
35878;BME280;21982;49.804;24.072;2023-06-19T03:23:44;97317.19;;;15.13;87.83
35878;BME280;21982;49.804;24.072;2023-06-19T03:26:10;97324.34;;;15.19;88.10
35878;BME280;21982;49.804;24.072;2023-06-19T03:28:36;97259.16;;;14.84;88.04
35878;BME280;21982;49.804;24.072;2023-06-19T03:31:01;97286.50;;;15.04;88.17
35878;BME280;21982;49.804;24.072;2023-06-19T03:33:27;97314.88;;;15.23;88.26
35878;BME280;21982;49.804;24.072;2023-06-19T03:35:52;97316.72;;;15.23;88.20
35878;BME280;21982;49.804;24.072;2023-06-19T03:38:19;97313.47;;;15.21;88.21
35878;BME280;21982;49.804;24.072;2023-06-19T03:40:44;97281.97;;;15.04;87.98
35878;BME280;21982;49.804;24.072;2023-06-19T03:43:11;97287.44;;;15.16;87.94
35878;BME280;21982;49.804;24.072;2023-06-19T03:45:37;97228.38;;;14.88;88.20
35878;BME280;21982;49.804;24.072;2023-06-19T03:48:02;97299.56;;;15.37;88.58
35878;BME280;21982;49.804;24.072;2023-06-19T03:50:28;97267.50;;;15.19;88.05
35878;BME280;21982;49.804;24.072;2023-06-19T03:52:54;97254.78;;;15.21;87.79
35878;BME280;21982;49.804;24.072;2023-06-19T03:55:20;97257.34;;;15.27;87.86
35878;BME280;21982;49.804;24.072;2023-06-19T03:57:45;97235.72;;;15.17;87.45
35878;BME280;21982;49.804;24.072;2023-06-19T04:00:12;97279.53;;;15.53;87.45
35878;BME280;21982;49.804;24.072;2023-06-19T04:02:39;97281.34;;;15.59;87.26
35878;BME280;21982;49.804;24.072;2023-06-19T04:10:20;97207.81;;;15.38;86.64
35878;BME280;21982;49.804;24.072;2023-06-19T04:12:47;97143.13;;;14.99;86.56
35878;BME280;21982;49.804;24.072;2023-06-19T04:15:13;97287.44;;;16.02;86.54
35878;BME280;21982;49.804;24.072;2023-06-19T04:17:38;97295.75;;;16.13;86.22
35878;BME280;21982;49.804;24.072;2023-06-19T04:20:04;97256.88;;;15.98;85.83
35878;BME280;21982;49.804;24.072;2023-06-19T04:22:39;97289.94;;;16.34;85.65
35878;BME280;21982;49.804;24.072;2023-06-19T04:25:08;97241.06;;;16.15;85.23
35878;BME280;21982;49.804;24.072;2023-06-19T04:27:35;97287.25;;;16.52;85.18
35878;BME280;21982;49.804;24.072;2023-06-19T04:30:03;97279.38;;;16.57;84.86
35878;BME280;21982;49.804;24.072;2023-06-19T04:32:29;97293.75;;;16.74;84.70
35878;BME280;21982;49.804;24.072;2023-06-19T04:34:55;97240.78;;;16.53;84.49
35878;BME280;21982;49.804;24.072;2023-06-19T04:37:20;97292.91;;;17.04;83.91
35878;BME280;21982;49.804;24.072;2023-06-19T04:39:46;97265.78;;;17.00;83.65
35878;BME280;21982;49.804;24.072;2023-06-19T04:42:16;97288.91;;;17.25;83.20
35878;BME280;21982;49.804;24.072;2023-06-19T04:44:49;97208.91;;;16.82;82.49
35878;BME280;21982;49.804;24.072;2023-06-19T04:47:17;97296.81;;;17.43;82.18
35878;BME280;21982;49.804;24.072;2023-06-19T04:49:44;97287.41;;;17.52;81.41
35878;BME280;21982;49.804;24.072;2023-06-19T04:52:10;97276.69;;;17.64;80.46
35878;BME280;21982;49.804;24.072;2023-06-19T04:54:36;97300.59;;;17.89;80.08
35878;BME280;21982;49.804;24.072;2023-06-19T04:57:02;97258.53;;;17.89;79.03
35878;BME280;21982;49.804;24.072;2023-06-19T04:59:28;97295.38;;;18.34;78.03
35878;BME280;21982;49.804;24.072;2023-06-19T05:01:55;97297.06;;;18.63;77.47
35878;BME280;21982;49.804;24.072;2023-06-19T05:04:21;97285.16;;;18.88;76.27
35878;BME280;21982;49.804;24.072;2023-06-19T05:06:47;97303.69;;;19.34;75.05
35878;BME280;21982;49.804;24.072;2023-06-19T05:09:13;97282.78;;;19.53;74.02
35878;BME280;21982;49.804;24.072;2023-06-19T05:11:38;97282.94;;;19.63;73.13
35878;BME280;21982;49.804;24.072;2023-06-19T05:14:04;97168.75;;;18.89;72.84
35878;BME280;21982;49.804;24.072;2023-06-19T05:16:29;97126.47;;;18.79;72.21
35878;BME280;21982;49.804;24.072;2023-06-19T05:18:55;97227.53;;;19.57;71.83
35878;BME280;21982;49.804;24.072;2023-06-19T05:21:21;97301.09;;;20.12;71.10
35878;BME280;21982;49.804;24.072;2023-06-19T05:23:47;97308.63;;;20.31;70.71
35878;BME280;21982;49.804;24.072;2023-06-19T05:26:16;97306.63;;;20.65;70.06
35878;BME280;21982;49.804;24.072;2023-06-19T05:28:42;97226.88;;;20.54;68.78
35878;BME280;21982;49.804;24.072;2023-06-19T05:31:09;97251.63;;;21.10;67.83
35878;BME280;21982;49.804;24.072;2023-06-19T05:33:39;97301.94;;;22.05;66.48
35878;BME280;21982;49.804;24.072;2023-06-19T05:36:05;97249.69;;;22.17;65.07
35878;BME280;21982;49.804;24.072;2023-06-19T05:38:30;97299.88;;;22.85;63.29
35878;BME280;21982;49.804;24.072;2023-06-19T05:40:58;97312.88;;;23.29;62.23
35878;BME280;21982;49.804;24.072;2023-06-19T05:43:27;97196.47;;;22.80;61.38
35878;BME280;21982;49.804;24.072;2023-06-19T05:45:53;97298.53;;;23.99;60.62
35878;BME280;21982;49.804;24.072;2023-06-19T05:48:20;97312.19;;;24.59;59.08
35878;BME280;21982;49.804;24.072;2023-06-19T05:50:55;97206.38;;;24.50;58.18
35878;BME280;21982;49.804;24.072;2023-06-19T05:53:20;97220.84;;;24.75;57.01
35878;BME280;21982;49.804;24.072;2023-06-19T05:55:45;97297.84;;;25.47;56.48
35878;BME280;21982;49.804;24.072;2023-06-19T05:58:11;97285.22;;;25.66;55.77
35878;BME280;21982;49.804;24.072;2023-06-19T06:00:36;97311.88;;;26.17;54.89
35878;BME280;21982;49.804;24.072;2023-06-19T06:03:03;97311.81;;;26.69;53.66
35878;BME280;21982;49.804;24.072;2023-06-19T06:05:29;97307.47;;;27.11;52.44
35878;BME280;21982;49.804;24.072;2023-06-19T06:07:59;97299.34;;;27.44;51.55
35878;BME280;21982;49.804;24.072;2023-06-19T06:10:25;97275.88;;;27.66;51.06
35878;BME280;21982;49.804;24.072;2023-06-19T06:12:51;97307.16;;;28.29;50.08
35878;BME280;21982;49.804;24.072;2023-06-19T06:15:18;97312.38;;;28.94;48.64
35878;BME280;21982;49.804;24.072;2023-06-19T06:17:44;97317.81;;;29.08;47.76
35878;BME280;21982;49.804;24.072;2023-06-19T06:20:11;97316.81;;;29.04;47.33
35878;BME280;21982;49.804;24.072;2023-06-19T06:22:38;97263.81;;;28.96;46.99
35878;BME280;21982;49.804;24.072;2023-06-19T06:25:04;97250.25;;;29.41;46.11
35878;BME280;21982;49.804;24.072;2023-06-19T06:27:29;97315.53;;;30.52;44.23
35878;BME280;21982;49.804;24.072;2023-06-19T06:29:55;97242.06;;;30.51;43.66
35878;BME280;21982;49.804;24.072;2023-06-19T06:32:20;97289.91;;;30.88;42.95
35878;BME280;21982;49.804;24.072;2023-06-19T06:34:46;97305.69;;;30.99;42.79
35878;BME280;21982;49.804;24.072;2023-06-19T06:37:12;97332.94;;;31.30;41.99
35878;BME280;21982;49.804;24.072;2023-06-19T06:39:38;97315.41;;;31.40;41.45
35878;BME280;21982;49.804;24.072;2023-06-19T06:42:04;97244.59;;;31.39;40.79
35878;BME280;21982;49.804;24.072;2023-06-19T06:44:29;97281.91;;;31.78;40.62
35878;BME280;21982;49.804;24.072;2023-06-19T06:46:55;97322.50;;;32.40;39.49
35878;BME280;21982;49.804;24.072;2023-06-19T06:49:20;97289.41;;;32.45;38.49
35878;BME280;21982;49.804;24.072;2023-06-19T06:51:47;97286.75;;;32.27;38.00
35878;BME280;21982;49.804;24.072;2023-06-19T06:54:13;97328.50;;;32.24;38.31
35878;BME280;21982;49.804;24.072;2023-06-19T06:56:38;97270.94;;;31.86;38.28
35878;BME280;21982;49.804;24.072;2023-06-19T06:59:03;97250.00;;;31.56;38.34
35878;BME280;21982;49.804;24.072;2023-06-19T07:01:29;97329.84;;;31.92;38.78
35878;BME280;21982;49.804;24.072;2023-06-19T07:03:54;97333.00;;;32.67;37.91
35878;BME280;21982;49.804;24.072;2023-06-19T07:06:19;97327.91;;;33.37;37.26
35878;BME280;21982;49.804;24.072;2023-06-19T07:08:45;97271.97;;;33.62;36.49
35878;BME280;21982;49.804;24.072;2023-06-19T07:11:13;97301.66;;;33.48;35.90
35878;BME280;21982;49.804;24.072;2023-06-19T07:13:38;97311.41;;;32.95;36.34
35878;BME280;21982;49.804;24.072;2023-06-19T07:16:05;97321.16;;;31.90;37.06
35878;BME280;21982;49.804;24.072;2023-06-19T07:18:31;97306.00;;;30.81;38.35
35878;BME280;21982;49.804;24.072;2023-06-19T07:20:58;97329.78;;;30.72;39.18
35878;BME280;21982;49.804;24.072;2023-06-19T07:23:25;97306.31;;;30.31;38.88
35878;BME280;21982;49.804;24.072;2023-06-19T07:25:50;97324.31;;;30.32;39.59
35878;BME280;21982;49.804;24.072;2023-06-19T07:28:17;97330.50;;;31.12;39.01
35878;BME280;21982;49.804;24.072;2023-06-19T07:30:43;97320.22;;;31.86;37.43
35878;BME280;21982;49.804;24.072;2023-06-19T07:33:10;97348.34;;;32.59;36.73
35878;BME280;21982;49.804;24.072;2023-06-19T07:35:35;97335.44;;;32.98;36.17
35878;BME280;21982;49.804;24.072;2023-06-19T07:38:01;97335.69;;;33.35;35.28
35878;BME280;21982;49.804;24.072;2023-06-19T07:40:26;97341.97;;;33.56;35.46
35878;BME280;21982;49.804;24.072;2023-06-19T07:42:51;97285.66;;;33.29;34.75
35878;BME280;21982;49.804;24.072;2023-06-19T07:45:17;97341.41;;;33.62;34.51
35878;BME280;21982;49.804;24.072;2023-06-19T07:47:42;97297.16;;;33.97;34.22
35878;BME280;21982;49.804;24.072;2023-06-19T07:50:08;97324.41;;;34.02;33.74
35878;BME280;21982;49.804;24.072;2023-06-19T07:52:33;97324.00;;;33.79;33.64
35878;BME280;21982;49.804;24.072;2023-06-19T07:54:59;97341.56;;;32.95;33.89
35878;BME280;21982;49.804;24.072;2023-06-19T07:57:26;97321.66;;;31.58;35.04
35878;BME280;21982;49.804;24.072;2023-06-19T07:59:53;97333.38;;;30.98;36.35
35878;BME280;21982;49.804;24.072;2023-06-19T08:02:19;97323.47;;;31.37;35.74
35878;BME280;21982;49.804;24.072;2023-06-19T08:04:45;97336.97;;;31.76;34.98
35878;BME280;21982;49.804;24.072;2023-06-19T08:07:11;97311.22;;;31.43;34.92
35878;BME280;21982;49.804;24.072;2023-06-19T08:09:36;97303.28;;;31.93;35.21
35878;BME280;21982;49.804;24.072;2023-06-19T08:12:02;97345.81;;;32.54;34.59
35878;BME280;21982;49.804;24.072;2023-06-19T08:14:27;97293.94;;;32.41;33.91
35878;BME280;21982;49.804;24.072;2023-06-19T08:16:54;97322.75;;;32.55;33.22
35878;BME280;21982;49.804;24.072;2023-06-19T08:19:19;97334.38;;;33.11;32.88
35878;BME280;21982;49.804;24.072;2023-06-19T08:21:45;97334.69;;;33.60;32.38
35878;BME280;21982;49.804;24.072;2023-06-19T08:24:10;97344.53;;;33.40;32.79
35878;BME280;21982;49.804;24.072;2023-06-19T08:26:35;97352.94;;;32.85;33.84
35878;BME280;21982;49.804;24.072;2023-06-19T08:29:01;97347.53;;;32.97;33.31
35878;BME280;21982;49.804;24.072;2023-06-19T08:31:26;97345.19;;;33.58;33.37
35878;BME280;21982;49.804;24.072;2023-06-19T08:33:54;97349.22;;;34.26;32.29
35878;BME280;21982;49.804;24.072;2023-06-19T08:36:20;97340.34;;;34.54;31.95
35878;BME280;21982;49.804;24.072;2023-06-19T08:38:46;97302.34;;;33.78;30.99
35878;BME280;21982;49.804;24.072;2023-06-19T08:41:18;97358.19;;;33.49;31.34
35878;BME280;21982;49.804;24.072;2023-06-19T08:43:47;97322.47;;;34.03;30.54
35878;BME280;21982;49.804;24.072;2023-06-19T08:46:17;97314.72;;;35.26;29.70
35878;BME280;21982;49.804;24.072;2023-06-19T08:48:44;97342.72;;;36.40;28.04
35878;BME280;21982;49.804;24.072;2023-06-19T08:51:10;97346.63;;;36.86;27.75
35878;BME280;21982;49.804;24.072;2023-06-19T08:53:54;97323.13;;;36.92;27.57
35878;BME280;21982;49.804;24.072;2023-06-19T08:56:19;97326.47;;;35.51;28.46
35878;BME280;21982;49.804;24.072;2023-06-19T08:58:45;97312.97;;;35.46;28.70
35878;BME280;21982;49.804;24.072;2023-06-19T09:01:13;97296.31;;;35.43;28.50
35878;BME280;21982;49.804;24.072;2023-06-19T09:03:39;97287.38;;;34.69;28.64
35878;BME280;21982;49.804;24.072;2023-06-19T09:06:07;97283.75;;;34.65;28.83
35878;BME280;21982;49.804;24.072;2023-06-19T09:08:34;97288.53;;;34.44;29.09
35878;BME280;21982;49.804;24.072;2023-06-19T09:11:04;97342.22;;;35.51;28.24
35878;BME280;21982;49.804;24.072;2023-06-19T09:13:31;97333.69;;;37.06;26.91
35878;BME280;21982;49.804;24.072;2023-06-19T09:16:10;97339.50;;;37.94;25.63
35878;BME280;21982;49.804;24.072;2023-06-19T09:18:46;97323.66;;;38.33;25.60
35878;BME280;21982;49.804;24.072;2023-06-19T09:21:17;97321.44;;;38.65;24.95
35878;BME280;21982;49.804;24.072;2023-06-19T09:26:19;97233.06;;;38.04;24.83
35878;BME280;21982;49.804;24.072;2023-06-19T09:28:45;97258.81;;;38.08;24.89
35878;BME280;21982;49.804;24.072;2023-06-19T09:31:11;97330.06;;;38.37;25.01
35878;BME280;21982;49.804;24.072;2023-06-19T09:33:39;97330.00;;;38.83;24.39
35878;BME280;21982;49.804;24.072;2023-06-19T09:36:05;97340.16;;;38.72;24.40
35878;BME280;21982;49.804;24.072;2023-06-19T09:38:38;97332.28;;;38.74;24.19
35878;BME280;21982;49.804;24.072;2023-06-19T09:41:06;97342.84;;;38.95;23.53
35878;BME280;21982;49.804;24.072;2023-06-19T09:43:39;97335.94;;;39.64;23.23
35878;BME280;21982;49.804;24.072;2023-06-19T09:46:08;97333.19;;;39.98;21.91
35878;BME280;21982;49.804;24.072;2023-06-19T09:48:34;97340.88;;;40.52;21.91
35878;BME280;21982;49.804;24.072;2023-06-19T09:53:44;97343.66;;;40.56;21.32
35878;BME280;21982;49.804;24.072;2023-06-19T09:56:11;97339.94;;;40.37;21.17
35878;BME280;21982;49.804;24.072;2023-06-19T09:58:37;97252.09;;;38.81;21.79
35878;BME280;21982;49.804;24.072;2023-06-19T10:01:04;97334.56;;;37.84;22.96
35878;BME280;21982;49.804;24.072;2023-06-19T10:03:31;97294.16;;;36.36;23.74
35878;BME280;21982;49.804;24.072;2023-06-19T10:06:02;97275.00;;;36.58;23.68
35878;BME280;21982;49.804;24.072;2023-06-19T10:08:30;97323.91;;;36.93;23.44
35878;BME280;21982;49.804;24.072;2023-06-19T10:10:58;97293.84;;;36.88;23.54
35878;BME280;21982;49.804;24.072;2023-06-19T10:13:31;97318.66;;;37.39;23.56
35878;BME280;21982;49.804;24.072;2023-06-19T10:15:58;97315.81;;;37.35;24.15
35878;BME280;21982;49.804;24.072;2023-06-19T10:18:23;97321.25;;;37.32;23.68
35878;BME280;21982;49.804;24.072;2023-06-19T10:20:54;97305.25;;;37.79;23.48
35878;BME280;21982;49.804;24.072;2023-06-19T10:23:21;97316.56;;;38.13;23.21
35878;BME280;21982;49.804;24.072;2023-06-19T10:25:55;97254.75;;;36.86;23.77
35878;BME280;21982;49.804;24.072;2023-06-19T10:28:24;97321.44;;;36.56;24.28
35878;BME280;21982;49.804;24.072;2023-06-19T10:30:54;97314.50;;;36.47;24.30
35878;BME280;21982;49.804;24.072;2023-06-19T10:33:21;97303.59;;;35.91;24.79
35878;BME280;21982;49.804;24.072;2023-06-19T10:35:46;97315.41;;;35.23;25.26
35878;BME280;21982;49.804;24.072;2023-06-19T10:38:15;97294.03;;;34.44;26.07
35878;BME280;21982;49.804;24.072;2023-06-19T10:40:40;97289.91;;;33.80;26.62
35878;BME280;21982;49.804;24.072;2023-06-19T10:43:36;97312.59;;;33.89;27.33
35878;BME280;21982;49.804;24.072;2023-06-19T10:46:02;97157.75;;;33.16;27.14
35878;BME280;21982;49.804;24.072;2023-06-19T10:48:28;97273.19;;;34.31;26.84
35878;BME280;21982;49.804;24.072;2023-06-19T10:50:56;97136.47;;;33.46;27.15
35878;BME280;21982;49.804;24.072;2023-06-19T10:56:00;97290.59;;;36.35;25.99
35878;BME280;21982;49.804;24.072;2023-06-19T10:58:29;97302.72;;;36.97;25.00
35878;BME280;21982;49.804;24.072;2023-06-19T11:00:56;97270.16;;;36.87;24.97
35878;BME280;21982;49.804;24.072;2023-06-19T11:03:22;97237.66;;;36.30;24.65
35878;BME280;21982;49.804;24.072;2023-06-19T11:05:48;97283.63;;;35.66;25.43
35878;BME280;21982;49.804;24.072;2023-06-19T11:08:19;97258.97;;;34.53;26.16
35878;BME280;21982;49.804;24.072;2023-06-19T11:10:45;97289.41;;;33.78;26.99
35878;BME280;21982;49.804;24.072;2023-06-19T11:13:15;97284.91;;;32.99;27.64
35878;BME280;21982;49.804;24.072;2023-06-19T11:15:41;97295.00;;;32.19;28.28
35878;BME280;21982;49.804;24.072;2023-06-19T11:18:06;97287.69;;;31.59;29.55
35878;BME280;21982;49.804;24.072;2023-06-19T11:20:43;97289.47;;;31.12;30.35
35878;BME280;21982;49.804;24.072;2023-06-19T11:23:09;97278.00;;;30.66;31.37
35878;BME280;21982;49.804;24.072;2023-06-19T11:25:36;97261.56;;;30.18;32.27
35878;BME280;21982;49.804;24.072;2023-06-19T11:28:01;97283.16;;;29.97;32.87
35878;BME280;21982;49.804;24.072;2023-06-19T11:30:32;97280.81;;;29.82;32.95
35878;BME280;21982;49.804;24.072;2023-06-19T11:32:57;97283.00;;;29.49;33.50
35878;BME280;21982;49.804;24.072;2023-06-19T11:35:23;97275.50;;;29.10;34.55
35878;BME280;21982;49.804;24.072;2023-06-19T11:37:49;97217.88;;;28.40;34.95
35878;BME280;21982;49.804;24.072;2023-06-19T11:40:15;97151.84;;;27.93;35.57
35878;BME280;21982;49.804;24.072;2023-06-19T11:42:53;97260.84;;;28.56;35.73
35878;BME280;21982;49.804;24.072;2023-06-19T11:45:19;97277.97;;;28.43;35.69
35878;BME280;21982;49.804;24.072;2023-06-19T11:47:45;97252.75;;;27.96;37.45
35878;BME280;21982;49.804;24.072;2023-06-19T11:50:14;97238.00;;;27.84;38.50
35878;BME280;21982;49.804;24.072;2023-06-19T11:52:44;97280.47;;;27.98;38.89
35878;BME280;21982;49.804;24.072;2023-06-19T11:55:10;97270.03;;;27.73;39.58
35878;BME280;21982;49.804;24.072;2023-06-19T11:57:36;97258.63;;;27.38;40.74
35878;BME280;21982;49.804;24.072;2023-06-19T12:00:04;97272.94;;;27.30;41.47
35878;BME280;21982;49.804;24.072;2023-06-19T12:02:32;96971.94;;;25.07;41.76
35878;BME280;21982;49.804;24.072;2023-06-19T12:04:58;97274.53;;;26.94;42.17
35878;BME280;21982;49.804;24.072;2023-06-19T12:07:24;97285.75;;;26.87;42.75
35878;BME280;21982;49.804;24.072;2023-06-19T12:09:50;97211.38;;;26.46;42.34
35878;BME280;21982;49.804;24.072;2023-06-19T12:12:16;97140.78;;;26.03;42.66
35878;BME280;21982;49.804;24.072;2023-06-19T12:14:41;97262.53;;;26.57;42.37
35878;BME280;21982;49.804;24.072;2023-06-19T12:17:13;97288.09;;;26.56;44.07
35878;BME280;21982;49.804;24.072;2023-06-19T12:19:38;97288.59;;;26.34;43.75
35878;BME280;21982;49.804;24.072;2023-06-19T12:22:08;97242.50;;;26.05;44.04
35878;BME280;21982;49.804;24.072;2023-06-19T12:24:37;97269.19;;;26.22;43.87
35878;BME280;21982;49.804;24.072;2023-06-19T12:27:09;97268.78;;;26.34;44.45
35878;BME280;21982;49.804;24.072;2023-06-19T12:32:10;97275.88;;;26.06;44.50
35878;BME280;21982;49.804;24.072;2023-06-19T12:34:37;97265.97;;;25.96;44.85
35878;BME280;21982;49.804;24.072;2023-06-19T12:37:03;97144.34;;;24.93;44.75
35878;BME280;21982;49.804;24.072;2023-06-19T12:39:28;97209.03;;;25.33;45.81
35878;BME280;21982;49.804;24.072;2023-06-19T12:41:54;97259.97;;;25.70;46.38
35878;BME280;21982;49.804;24.072;2023-06-19T12:44:21;97150.13;;;25.15;46.49
35878;BME280;21982;49.804;24.072;2023-06-19T12:46:47;97267.59;;;25.97;46.53
35878;BME280;21982;49.804;24.072;2023-06-19T12:49:12;97172.50;;;25.55;46.01
35878;BME280;21982;49.804;24.072;2023-06-19T12:51:38;97216.09;;;25.92;45.74
35878;BME280;21982;49.804;24.072;2023-06-19T12:56:39;97254.53;;;26.47;44.13
35878;BME280;21982;49.804;24.072;2023-06-19T12:59:06;97254.06;;;26.40;44.06
35878;BME280;21982;49.804;24.072;2023-06-19T13:01:31;97261.34;;;26.21;43.89
35878;BME280;21982;49.804;24.072;2023-06-19T13:03:59;97166.72;;;25.37;44.55
35878;BME280;21982;49.804;24.072;2023-06-19T13:06:25;97237.41;;;25.75;45.50
35878;BME280;21982;49.804;24.072;2023-06-19T13:08:50;97236.97;;;25.63;46.19
35878;BME280;21982;49.804;24.072;2023-06-19T13:11:15;97255.44;;;25.90;46.15